sensor_id;sensor_type;location;lat;lon;timestamp;P1;durP1;ratioP1;P2;durP2;ratioP2
12127;SDS011;6127;57.702;11.904;2022-12-07T00:02:09;0.40;;;0.40;;
12127;SDS011;6127;57.702;11.904;2022-12-07T00:04:35;0.40;;;0.40;;
12127;SDS011;6127;57.702;11.904;2022-12-07T00:07:00;0.30;;;0.30;;
12127;SDS011;6127;57.702;11.904;2022-12-07T00:09:27;0.33;;;0.33;;
12127;SDS011;6127;57.702;11.904;2022-12-07T00:11:53;0.30;;;0.30;;
12127;SDS011;6127;57.702;11.904;2022-12-07T00:14:20;0.30;;;0.30;;
12127;SDS011;6127;57.702;11.904;2022-12-07T00:16:48;0.30;;;0.30;;
12127;SDS011;6127;57.702;11.904;2022-12-07T00:19:14;0.40;;;0.40;;
12127;SDS011;6127;57.702;11.904;2022-12-07T00:21:40;0.30;;;0.30;;
12127;SDS011;6127;57.702;11.904;2022-12-07T00:24:06;0.30;;;0.30;;
12127;SDS011;6127;57.702;11.904;2022-12-07T00:26:33;0.40;;;0.40;;
12127;SDS011;6127;57.702;11.904;2022-12-07T00:29:00;0.30;;;0.30;;
12127;SDS011;6127;57.702;11.904;2022-12-07T00:31:27;0.30;;;0.30;;
12127;SDS011;6127;57.702;11.904;2022-12-07T00:33:54;0.30;;;0.30;;
12127;SDS011;6127;57.702;11.904;2022-12-07T00:36:22;0.30;;;0.30;;
12127;SDS011;6127;57.702;11.904;2022-12-07T00:38:48;0.40;;;0.40;;
12127;SDS011;6127;57.702;11.904;2022-12-07T00:41:15;0.30;;;0.30;;
12127;SDS011;6127;57.702;11.904;2022-12-07T00:43:42;0.30;;;0.30;;
12127;SDS011;6127;57.702;11.904;2022-12-07T00:46:08;0.30;;;0.30;;
12127;SDS011;6127;57.702;11.904;2022-12-07T00:48:34;0.30;;;0.30;;
12127;SDS011;6127;57.702;11.904;2022-12-07T00:51:00;0.40;;;0.40;;
12127;SDS011;6127;57.702;11.904;2022-12-07T00:53:26;0.30;;;0.30;;
12127;SDS011;6127;57.702;11.904;2022-12-07T00:55:53;0.30;;;0.30;;
12127;SDS011;6127;57.702;11.904;2022-12-07T00:58:20;0.30;;;0.30;;
12127;SDS011;6127;57.702;11.904;2022-12-07T01:00:46;0.30;;;0.30;;
12127;SDS011;6127;57.702;11.904;2022-12-07T01:03:13;0.30;;;0.30;;
12127;SDS011;6127;57.702;11.904;2022-12-07T01:05:39;0.30;;;0.30;;
12127;SDS011;6127;57.702;11.904;2022-12-07T01:08:06;0.40;;;0.40;;
12127;SDS011;6127;57.702;11.904;2022-12-07T01:10:32;0.40;;;0.40;;
12127;SDS011;6127;57.702;11.904;2022-12-07T01:12:58;0.30;;;0.30;;
12127;SDS011;6127;57.702;11.904;2022-12-07T01:15:25;0.40;;;0.40;;
12127;SDS011;6127;57.702;11.904;2022-12-07T01:17:51;0.40;;;0.40;;
12127;SDS011;6127;57.702;11.904;2022-12-07T01:20:17;0.30;;;0.30;;
12127;SDS011;6127;57.702;11.904;2022-12-07T01:22:43;0.40;;;0.40;;
12127;SDS011;6127;57.702;11.904;2022-12-07T01:25:09;0.30;;;0.30;;
12127;SDS011;6127;57.702;11.904;2022-12-07T01:27:36;0.30;;;0.30;;
12127;SDS011;6127;57.702;11.904;2022-12-07T01:30:03;0.30;;;0.30;;
12127;SDS011;6127;57.702;11.904;2022-12-07T01:32:29;0.30;;;0.30;;
12127;SDS011;6127;57.702;11.904;2022-12-07T01:34:55;0.30;;;0.30;;
12127;SDS011;6127;57.702;11.904;2022-12-07T01:37:21;0.30;;;0.30;;
12127;SDS011;6127;57.702;11.904;2022-12-07T01:39:50;0.30;;;0.30;;
12127;SDS011;6127;57.702;11.904;2022-12-07T01:42:17;0.30;;;0.30;;
12127;SDS011;6127;57.702;11.904;2022-12-07T01:47:27;0.40;;;0.40;;
12127;SDS011;6127;57.702;11.904;2022-12-07T01:49:53;0.30;;;0.30;;
12127;SDS011;6127;57.702;11.904;2022-12-07T01:52:21;0.40;;;0.40;;
12127;SDS011;6127;57.702;11.904;2022-12-07T01:54:49;0.30;;;0.30;;
12127;SDS011;6127;57.702;11.904;2022-12-07T01:57:16;0.30;;;0.30;;
12127;SDS011;6127;57.702;11.904;2022-12-07T01:59:43;0.33;;;0.33;;
12127;SDS011;6127;57.702;11.904;2022-12-07T02:02:13;0.30;;;0.30;;
12127;SDS011;6127;57.702;11.904;2022-12-07T02:04:41;0.30;;;0.30;;
12127;SDS011;6127;57.702;11.904;2022-12-07T02:07:07;0.30;;;0.30;;
12127;SDS011;6127;57.702;11.904;2022-12-07T02:09:34;0.30;;;0.30;;
12127;SDS011;6127;57.702;11.904;2022-12-07T02:11:59;0.30;;;0.30;;
12127;SDS011;6127;57.702;11.904;2022-12-07T02:14:25;0.30;;;0.30;;
12127;SDS011;6127;57.702;11.904;2022-12-07T02:16:55;0.30;;;0.30;;
12127;SDS011;6127;57.702;11.904;2022-12-07T02:25:13;0.30;;;0.30;;
12127;SDS011;6127;57.702;11.904;2022-12-07T02:30:17;0.30;;;0.30;;
12127;SDS011;6127;57.702;11.904;2022-12-07T02:32:57;0.30;;;0.30;;
12127;SDS011;6127;57.702;11.904;2022-12-07T02:40:34;0.30;;;0.30;;
12127;SDS011;6127;57.702;11.904;2022-12-07T02:43:08;0.30;;;0.30;;
12127;SDS011;6127;57.702;11.904;2022-12-07T02:45:36;0.30;;;0.30;;
12127;SDS011;6127;57.702;11.904;2022-12-07T02:48:03;0.40;;;0.40;;
12127;SDS011;6127;57.702;11.904;2022-12-07T02:50:30;0.30;;;0.30;;
12127;SDS011;6127;57.702;11.904;2022-12-07T02:52:56;0.30;;;0.30;;
12127;SDS011;6127;57.702;11.904;2022-12-07T02:55:25;0.30;;;0.30;;
12127;SDS011;6127;57.702;11.904;2022-12-07T03:00:41;0.30;;;0.30;;
12127;SDS011;6127;57.702;11.904;2022-12-07T03:03:12;0.30;;;0.30;;
12127;SDS011;6127;57.702;11.904;2022-12-07T03:08:28;0.30;;;0.30;;
12127;SDS011;6127;57.702;11.904;2022-12-07T03:11:04;0.30;;;0.30;;
12127;SDS011;6127;57.702;11.904;2022-12-07T03:16:30;0.30;;;0.30;;
12127;SDS011;6127;57.702;11.904;2022-12-07T03:19:00;0.30;;;0.30;;
12127;SDS011;6127;57.702;11.904;2022-12-07T03:21:34;0.30;;;0.30;;
12127;SDS011;6127;57.702;11.904;2022-12-07T03:24:03;0.40;;;0.40;;
12127;SDS011;6127;57.702;11.904;2022-12-07T03:26:32;0.30;;;0.30;;
12127;SDS011;6127;57.702;11.904;2022-12-07T03:29:00;0.30;;;0.30;;
12127;SDS011;6127;57.702;11.904;2022-12-07T03:31:31;0.40;;;0.40;;
12127;SDS011;6127;57.702;11.904;2022-12-07T03:36:25;0.30;;;0.30;;
12127;SDS011;6127;57.702;11.904;2022-12-07T03:38:59;0.33;;;0.33;;
12127;SDS011;6127;57.702;11.904;2022-12-07T03:41:27;0.30;;;0.30;;
12127;SDS011;6127;57.702;11.904;2022-12-07T03:43:55;0.30;;;0.30;;
12127;SDS011;6127;57.702;11.904;2022-12-07T03:46:27;0.30;;;0.30;;
12127;SDS011;6127;57.702;11.904;2022-12-07T03:49:06;0.30;;;0.30;;
12127;SDS011;6127;57.702;11.904;2022-12-07T03:51:45;0.30;;;0.30;;
12127;SDS011;6127;57.702;11.904;2022-12-07T03:54:48;0.30;;;0.30;;
12127;SDS011;6127;57.702;11.904;2022-12-07T03:57:06;0.30;;;0.30;;
12127;SDS011;6127;57.702;11.904;2022-12-07T03:59:33;0.30;;;0.30;;
12127;SDS011;6127;57.702;11.904;2022-12-07T04:02:03;0.30;;;0.30;;
12127;SDS011;6127;57.702;11.904;2022-12-07T04:04:30;0.30;;;0.30;;
12127;SDS011;6127;57.702;11.904;2022-12-07T04:06:56;0.30;;;0.30;;
12127;SDS011;6127;57.702;11.904;2022-12-07T04:09:22;0.30;;;0.30;;
12127;SDS011;6127;57.702;11.904;2022-12-07T04:11:48;0.40;;;0.40;;
12127;SDS011;6127;57.702;11.904;2022-12-07T04:14:14;0.30;;;0.30;;
12127;SDS011;6127;57.702;11.904;2022-12-07T04:16:43;0.30;;;0.30;;
12127;SDS011;6127;57.702;11.904;2022-12-07T04:19:09;0.30;;;0.30;;
12127;SDS011;6127;57.702;11.904;2022-12-07T04:21:35;0.30;;;0.30;;
12127;SDS011;6127;57.702;11.904;2022-12-07T04:24:01;0.30;;;0.30;;
12127;SDS011;6127;57.702;11.904;2022-12-07T04:26:27;0.30;;;0.30;;
12127;SDS011;6127;57.702;11.904;2022-12-07T04:28:53;0.30;;;0.30;;
12127;SDS011;6127;57.702;11.904;2022-12-07T04:31:19;0.30;;;0.30;;
12127;SDS011;6127;57.702;11.904;2022-12-07T04:33:45;0.30;;;0.30;;
12127;SDS011;6127;57.702;11.904;2022-12-07T04:36:11;0.30;;;0.30;;
12127;SDS011;6127;57.702;11.904;2022-12-07T04:38:37;0.30;;;0.30;;
12127;SDS011;6127;57.702;11.904;2022-12-07T04:41:06;0.33;;;0.33;;
12127;SDS011;6127;57.702;11.904;2022-12-07T04:43:33;0.30;;;0.30;;
12127;SDS011;6127;57.702;11.904;2022-12-07T04:45:59;0.30;;;0.30;;
12127;SDS011;6127;57.702;11.904;2022-12-07T04:48:25;0.30;;;0.30;;
12127;SDS011;6127;57.702;11.904;2022-12-07T04:50:51;0.30;;;0.30;;
12127;SDS011;6127;57.702;11.904;2022-12-07T04:53:17;0.30;;;0.30;;
12127;SDS011;6127;57.702;11.904;2022-12-07T04:55:43;0.30;;;0.30;;
12127;SDS011;6127;57.702;11.904;2022-12-07T04:58:10;0.30;;;0.30;;
12127;SDS011;6127;57.702;11.904;2022-12-07T05:00:36;0.30;;;0.30;;
12127;SDS011;6127;57.702;11.904;2022-12-07T05:03:01;0.30;;;0.30;;
12127;SDS011;6127;57.702;11.904;2022-12-07T05:05:27;0.30;;;0.30;;
12127;SDS011;6127;57.702;11.904;2022-12-07T05:07:53;0.30;;;0.30;;
12127;SDS011;6127;57.702;11.904;2022-12-07T05:10:19;0.30;;;0.30;;
12127;SDS011;6127;57.702;11.904;2022-12-07T05:12:46;0.30;;;0.30;;
12127;SDS011;6127;57.702;11.904;2022-12-07T05:15:12;0.30;;;0.30;;
12127;SDS011;6127;57.702;11.904;2022-12-07T05:17:38;0.30;;;0.30;;
12127;SDS011;6127;57.702;11.904;2022-12-07T05:20:04;0.30;;;0.30;;
12127;SDS011;6127;57.702;11.904;2022-12-07T05:22:31;0.30;;;0.30;;
12127;SDS011;6127;57.702;11.904;2022-12-07T05:24:57;0.30;;;0.30;;
12127;SDS011;6127;57.702;11.904;2022-12-07T05:27:23;0.30;;;0.30;;
12127;SDS011;6127;57.702;11.904;2022-12-07T05:29:52;0.30;;;0.30;;
12127;SDS011;6127;57.702;11.904;2022-12-07T05:32:18;0.30;;;0.30;;
12127;SDS011;6127;57.702;11.904;2022-12-07T05:34:44;0.30;;;0.30;;
12127;SDS011;6127;57.702;11.904;2022-12-07T05:37:10;0.27;;;0.27;;
12127;SDS011;6127;57.702;11.904;2022-12-07T05:39:36;0.27;;;0.27;;
12127;SDS011;6127;57.702;11.904;2022-12-07T05:42:05;0.30;;;0.30;;
12127;SDS011;6127;57.702;11.904;2022-12-07T05:44:38;0.30;;;0.30;;
12127;SDS011;6127;57.702;11.904;2022-12-07T05:47:04;0.30;;;0.30;;
12127;SDS011;6127;57.702;11.904;2022-12-07T05:49:30;0.50;;;0.50;;
12127;SDS011;6127;57.702;11.904;2022-12-07T05:51:56;0.30;;;0.30;;
12127;SDS011;6127;57.702;11.904;2022-12-07T05:54:22;0.30;;;0.30;;
12127;SDS011;6127;57.702;11.904;2022-12-07T05:56:48;0.30;;;0.30;;
12127;SDS011;6127;57.702;11.904;2022-12-07T05:59:14;0.30;;;0.30;;
12127;SDS011;6127;57.702;11.904;2022-12-07T06:01:52;0.30;;;0.30;;
12127;SDS011;6127;57.702;11.904;2022-12-07T06:04:18;0.30;;;0.30;;
12127;SDS011;6127;57.702;11.904;2022-12-07T06:06:44;0.30;;;0.30;;
12127;SDS011;6127;57.702;11.904;2022-12-07T06:09:10;0.30;;;0.30;;
12127;SDS011;6127;57.702;11.904;2022-12-07T06:11:37;0.30;;;0.30;;
12127;SDS011;6127;57.702;11.904;2022-12-07T06:14:22;0.30;;;0.30;;
12127;SDS011;6127;57.702;11.904;2022-12-07T06:16:48;0.30;;;0.30;;
12127;SDS011;6127;57.702;11.904;2022-12-07T06:19:14;0.30;;;0.30;;
12127;SDS011;6127;57.702;11.904;2022-12-07T06:21:40;0.30;;;0.30;;
12127;SDS011;6127;57.702;11.904;2022-12-07T06:24:06;0.30;;;0.30;;
12127;SDS011;6127;57.702;11.904;2022-12-07T06:26:32;0.30;;;0.30;;
12127;SDS011;6127;57.702;11.904;2022-12-07T06:28:58;0.30;;;0.30;;
12127;SDS011;6127;57.702;11.904;2022-12-07T06:31:24;0.30;;;0.30;;
12127;SDS011;6127;57.702;11.904;2022-12-07T06:33:50;0.30;;;0.30;;
12127;SDS011;6127;57.702;11.904;2022-12-07T06:36:16;0.30;;;0.30;;
12127;SDS011;6127;57.702;11.904;2022-12-07T06:38:42;0.30;;;0.30;;
12127;SDS011;6127;57.702;11.904;2022-12-07T06:41:08;0.30;;;0.30;;
12127;SDS011;6127;57.702;11.904;2022-12-07T06:43:34;0.30;;;0.30;;
12127;SDS011;6127;57.702;11.904;2022-12-07T06:46:00;0.30;;;0.30;;
12127;SDS011;6127;57.702;11.904;2022-12-07T06:48:26;0.30;;;0.30;;
12127;SDS011;6127;57.702;11.904;2022-12-07T06:50:52;0.30;;;0.30;;
12127;SDS011;6127;57.702;11.904;2022-12-07T06:53:18;0.30;;;0.30;;
12127;SDS011;6127;57.702;11.904;2022-12-07T06:55:44;0.30;;;0.30;;
12127;SDS011;6127;57.702;11.904;2022-12-07T06:58:10;0.27;;;0.27;;
12127;SDS011;6127;57.702;11.904;2022-12-07T07:00:36;0.30;;;0.30;;
12127;SDS011;6127;57.702;11.904;2022-12-07T07:03:02;0.30;;;0.30;;
12127;SDS011;6127;57.702;11.904;2022-12-07T07:05:28;0.30;;;0.30;;
12127;SDS011;6127;57.702;11.904;2022-12-07T07:07:54;0.30;;;0.30;;
12127;SDS011;6127;57.702;11.904;2022-12-07T07:10:20;0.30;;;0.30;;
12127;SDS011;6127;57.702;11.904;2022-12-07T07:12:46;0.30;;;0.30;;
12127;SDS011;6127;57.702;11.904;2022-12-07T07:15:12;0.30;;;0.30;;
12127;SDS011;6127;57.702;11.904;2022-12-07T07:17:38;0.30;;;0.30;;
12127;SDS011;6127;57.702;11.904;2022-12-07T07:20:04;0.30;;;0.30;;
12127;SDS011;6127;57.702;11.904;2022-12-07T07:22:30;0.30;;;0.30;;
12127;SDS011;6127;57.702;11.904;2022-12-07T07:24:56;0.30;;;0.30;;
12127;SDS011;6127;57.702;11.904;2022-12-07T07:27:22;0.50;;;0.50;;
12127;SDS011;6127;57.702;11.904;2022-12-07T07:29:48;0.30;;;0.30;;
12127;SDS011;6127;57.702;11.904;2022-12-07T07:32:14;0.30;;;0.30;;
12127;SDS011;6127;57.702;11.904;2022-12-07T07:34:40;0.30;;;0.30;;
12127;SDS011;6127;57.702;11.904;2022-12-07T07:37:06;0.30;;;0.30;;
12127;SDS011;6127;57.702;11.904;2022-12-07T07:39:32;0.30;;;0.30;;
12127;SDS011;6127;57.702;11.904;2022-12-07T07:41:58;0.20;;;0.20;;
12127;SDS011;6127;57.702;11.904;2022-12-07T07:44:24;0.30;;;0.30;;
12127;SDS011;6127;57.702;11.904;2022-12-07T07:46:50;0.30;;;0.30;;
12127;SDS011;6127;57.702;11.904;2022-12-07T07:49:16;0.30;;;0.30;;
12127;SDS011;6127;57.702;11.904;2022-12-07T07:51:42;0.20;;;0.20;;
12127;SDS011;6127;57.702;11.904;2022-12-07T07:54:08;0.27;;;0.27;;
12127;SDS011;6127;57.702;11.904;2022-12-07T07:56:34;0.30;;;0.30;;
12127;SDS011;6127;57.702;11.904;2022-12-07T07:59:00;0.30;;;0.30;;
12127;SDS011;6127;57.702;11.904;2022-12-07T08:01:26;0.30;;;0.30;;
12127;SDS011;6127;57.702;11.904;2022-12-07T08:03:52;0.30;;;0.30;;
12127;SDS011;6127;57.702;11.904;2022-12-07T08:06:18;0.37;;;0.37;;
12127;SDS011;6127;57.702;11.904;2022-12-07T08:08:44;0.30;;;0.30;;
12127;SDS011;6127;57.702;11.904;2022-12-07T08:11:10;0.30;;;0.30;;
12127;SDS011;6127;57.702;11.904;2022-12-07T08:13:36;0.30;;;0.30;;
12127;SDS011;6127;57.702;11.904;2022-12-07T08:16:09;0.30;;;0.30;;
12127;SDS011;6127;57.702;11.904;2022-12-07T08:18:36;0.30;;;0.30;;
12127;SDS011;6127;57.702;11.904;2022-12-07T08:21:03;0.30;;;0.30;;
12127;SDS011;6127;57.702;11.904;2022-12-07T08:23:29;0.30;;;0.30;;
12127;SDS011;6127;57.702;11.904;2022-12-07T08:25:59;0.30;;;0.30;;
12127;SDS011;6127;57.702;11.904;2022-12-07T08:28:25;0.30;;;0.30;;
12127;SDS011;6127;57.702;11.904;2022-12-07T08:30:51;0.30;;;0.30;;
12127;SDS011;6127;57.702;11.904;2022-12-07T08:33:17;0.30;;;0.30;;
12127;SDS011;6127;57.702;11.904;2022-12-07T08:35:43;0.30;;;0.30;;
12127;SDS011;6127;57.702;11.904;2022-12-07T08:38:09;0.30;;;0.30;;
12127;SDS011;6127;57.702;11.904;2022-12-07T08:40:35;0.30;;;0.30;;
12127;SDS011;6127;57.702;11.904;2022-12-07T08:43:01;0.30;;;0.30;;
12127;SDS011;6127;57.702;11.904;2022-12-07T08:45:27;0.30;;;0.30;;
12127;SDS011;6127;57.702;11.904;2022-12-07T08:47:57;0.30;;;0.30;;
12127;SDS011;6127;57.702;11.904;2022-12-07T08:50:24;0.30;;;0.30;;
12127;SDS011;6127;57.702;11.904;2022-12-07T08:52:51;0.30;;;0.30;;
12127;SDS011;6127;57.702;11.904;2022-12-07T08:55:18;0.30;;;0.30;;
12127;SDS011;6127;57.702;11.904;2022-12-07T08:57:44;0.30;;;0.30;;
12127;SDS011;6127;57.702;11.904;2022-12-07T09:00:10;0.30;;;0.30;;
12127;SDS011;6127;57.702;11.904;2022-12-07T09:02:36;0.20;;;0.20;;
12127;SDS011;6127;57.702;11.904;2022-12-07T09:05:03;0.30;;;0.30;;
12127;SDS011;6127;57.702;11.904;2022-12-07T09:07:29;0.30;;;0.30;;
12127;SDS011;6127;57.702;11.904;2022-12-07T09:09:56;0.30;;;0.30;;
12127;SDS011;6127;57.702;11.904;2022-12-07T09:12:21;0.30;;;0.30;;
12127;SDS011;6127;57.702;11.904;2022-12-07T09:14:47;0.30;;;0.30;;
12127;SDS011;6127;57.702;11.904;2022-12-07T09:17:13;0.30;;;0.30;;
12127;SDS011;6127;57.702;11.904;2022-12-07T09:19:39;0.30;;;0.30;;
12127;SDS011;6127;57.702;11.904;2022-12-07T09:22:07;0.30;;;0.30;;
12127;SDS011;6127;57.702;11.904;2022-12-07T09:24:33;0.30;;;0.30;;
12127;SDS011;6127;57.702;11.904;2022-12-07T09:26:59;0.30;;;0.30;;
12127;SDS011;6127;57.702;11.904;2022-12-07T09:29:25;0.30;;;0.30;;
12127;SDS011;6127;57.702;11.904;2022-12-07T09:31:51;0.30;;;0.30;;
12127;SDS011;6127;57.702;11.904;2022-12-07T09:34:17;0.30;;;0.30;;
12127;SDS011;6127;57.702;11.904;2022-12-07T09:36:43;0.30;;;0.30;;
12127;SDS011;6127;57.702;11.904;2022-12-07T09:39:09;0.30;;;0.30;;
12127;SDS011;6127;57.702;11.904;2022-12-07T09:41:42;0.30;;;0.30;;
12127;SDS011;6127;57.702;11.904;2022-12-07T09:44:10;0.20;;;0.20;;
12127;SDS011;6127;57.702;11.904;2022-12-07T09:46:38;0.30;;;0.30;;
12127;SDS011;6127;57.702;11.904;2022-12-07T09:49:05;0.30;;;0.30;;
12127;SDS011;6127;57.702;11.904;2022-12-07T09:51:35;0.40;;;0.40;;
12127;SDS011;6127;57.702;11.904;2022-12-07T09:54:01;0.20;;;0.20;;
12127;SDS011;6127;57.702;11.904;2022-12-07T09:56:30;0.30;;;0.30;;
12127;SDS011;6127;57.702;11.904;2022-12-07T09:59:00;0.30;;;0.30;;
12127;SDS011;6127;57.702;11.904;2022-12-07T10:01:27;0.30;;;0.30;;
12127;SDS011;6127;57.702;11.904;2022-12-07T10:03:54;0.30;;;0.30;;
12127;SDS011;6127;57.702;11.904;2022-12-07T10:06:21;0.40;;;0.40;;
12127;SDS011;6127;57.702;11.904;2022-12-07T10:08:47;0.30;;;0.30;;
12127;SDS011;6127;57.702;11.904;2022-12-07T10:11:13;0.30;;;0.30;;
12127;SDS011;6127;57.702;11.904;2022-12-07T10:13:42;0.40;;;0.40;;
12127;SDS011;6127;57.702;11.904;2022-12-07T10:18:52;0.30;;;0.30;;
12127;SDS011;6127;57.702;11.904;2022-12-07T10:21:23;0.20;;;0.20;;
12127;SDS011;6127;57.702;11.904;2022-12-07T10:29:16;0.30;;;0.30;;
12127;SDS011;6127;57.702;11.904;2022-12-07T10:31:43;0.30;;;0.30;;
12127;SDS011;6127;57.702;11.904;2022-12-07T10:34:28;0.30;;;0.30;;
12127;SDS011;6127;57.702;11.904;2022-12-07T10:37:17;0.30;;;0.30;;
12127;SDS011;6127;57.702;11.904;2022-12-07T10:45:15;0.30;;;0.30;;
12127;SDS011;6127;57.702;11.904;2022-12-07T10:47:49;0.30;;;0.30;;
12127;SDS011;6127;57.702;11.904;2022-12-07T11:00:23;0.40;;;0.40;;
12127;SDS011;6127;57.702;11.904;2022-12-07T11:05:40;0.30;;;0.30;;
12127;SDS011;6127;57.702;11.904;2022-12-07T11:08:21;0.30;;;0.30;;
12127;SDS011;6127;57.702;11.904;2022-12-07T11:11:09;0.20;;;0.20;;
12127;SDS011;6127;57.702;11.904;2022-12-07T11:13:44;0.30;;;0.30;;
12127;SDS011;6127;57.702;11.904;2022-12-07T11:16:19;0.30;;;0.30;;
12127;SDS011;6127;57.702;11.904;2022-12-07T11:18:52;0.30;;;0.30;;
12127;SDS011;6127;57.702;11.904;2022-12-07T11:31:58;0.30;;;0.30;;
12127;SDS011;6127;57.702;11.904;2022-12-07T11:36:53;0.20;;;0.20;;
12127;SDS011;6127;57.702;11.904;2022-12-07T11:39:33;0.30;;;0.30;;
12127;SDS011;6127;57.702;11.904;2022-12-07T11:42:03;0.30;;;0.30;;
12127;SDS011;6127;57.702;11.904;2022-12-07T11:49:40;0.30;;;0.30;;
12127;SDS011;6127;57.702;11.904;2022-12-07T11:52:12;0.30;;;0.30;;
12127;SDS011;6127;57.702;11.904;2022-12-07T11:54:42;0.30;;;0.30;;
12127;SDS011;6127;57.702;11.904;2022-12-07T11:57:12;0.30;;;0.30;;
12127;SDS011;6127;57.702;11.904;2022-12-07T11:59:41;0.30;;;0.30;;
12127;SDS011;6127;57.702;11.904;2022-12-07T12:02:15;0.30;;;0.30;;
12127;SDS011;6127;57.702;11.904;2022-12-07T12:04:53;0.30;;;0.30;;
12127;SDS011;6127;57.702;11.904;2022-12-07T12:07:22;0.30;;;0.30;;
12127;SDS011;6127;57.702;11.904;2022-12-07T12:09:50;0.20;;;0.20;;
12127;SDS011;6127;57.702;11.904;2022-12-07T12:17:16;0.30;;;0.30;;
12127;SDS011;6127;57.702;11.904;2022-12-07T12:22:32;0.30;;;0.30;;
12127;SDS011;6127;57.702;11.904;2022-12-07T12:24:59;0.30;;;0.30;;
12127;SDS011;6127;57.702;11.904;2022-12-07T12:27:26;0.40;;;0.40;;
12127;SDS011;6127;57.702;11.904;2022-12-07T12:29:55;0.30;;;0.30;;
12127;SDS011;6127;57.702;11.904;2022-12-07T12:32:24;0.30;;;0.30;;
12127;SDS011;6127;57.702;11.904;2022-12-07T12:35:01;0.30;;;0.30;;
12127;SDS011;6127;57.702;11.904;2022-12-07T12:42:55;0.30;;;0.30;;
12127;SDS011;6127;57.702;11.904;2022-12-07T12:45:25;0.40;;;0.40;;
12127;SDS011;6127;57.702;11.904;2022-12-07T12:47:52;0.40;;;0.40;;
12127;SDS011;6127;57.702;11.904;2022-12-07T12:52:51;0.30;;;0.30;;
12127;SDS011;6127;57.702;11.904;2022-12-07T12:55:18;0.23;;;0.23;;
12127;SDS011;6127;57.702;11.904;2022-12-07T12:57:46;0.30;;;0.30;;
12127;SDS011;6127;57.702;11.904;2022-12-07T13:00:16;0.30;;;0.30;;
12127;SDS011;6127;57.702;11.904;2022-12-07T13:02:50;0.30;;;0.30;;
12127;SDS011;6127;57.702;11.904;2022-12-07T13:05:49;0.30;;;0.30;;
12127;SDS011;6127;57.702;11.904;2022-12-07T13:08:17;0.40;;;0.40;;
12127;SDS011;6127;57.702;11.904;2022-12-07T13:10:44;0.40;;;0.40;;
12127;SDS011;6127;57.702;11.904;2022-12-07T13:15:39;0.30;;;0.30;;
12127;SDS011;6127;57.702;11.904;2022-12-07T13:23:17;0.30;;;0.30;;
12127;SDS011;6127;57.702;11.904;2022-12-07T13:25:46;0.37;;;0.37;;
12127;SDS011;6127;57.702;11.904;2022-12-07T13:28:15;0.30;;;0.30;;
12127;SDS011;6127;57.702;11.904;2022-12-07T13:30:45;0.40;;;0.40;;
12127;SDS011;6127;57.702;11.904;2022-12-07T13:33:11;0.30;;;0.30;;
12127;SDS011;6127;57.702;11.904;2022-12-07T13:35:38;0.30;;;0.30;;
12127;SDS011;6127;57.702;11.904;2022-12-07T13:38:05;0.30;;;0.30;;
12127;SDS011;6127;57.702;11.904;2022-12-07T13:40:32;0.40;;;0.40;;
12127;SDS011;6127;57.702;11.904;2022-12-07T13:42:58;0.40;;;0.40;;
12127;SDS011;6127;57.702;11.904;2022-12-07T13:50:42;0.40;;;0.40;;
12127;SDS011;6127;57.702;11.904;2022-12-07T13:53:11;0.40;;;0.40;;
12127;SDS011;6127;57.702;11.904;2022-12-07T13:55:38;0.43;;;0.43;;
12127;SDS011;6127;57.702;11.904;2022-12-07T13:58:09;0.50;;;0.50;;
12127;SDS011;6127;57.702;11.904;2022-12-07T14:00:35;0.40;;;0.40;;
12127;SDS011;6127;57.702;11.904;2022-12-07T14:05:36;0.40;;;0.40;;
12127;SDS011;6127;57.702;11.904;2022-12-07T14:10:39;0.50;;;0.50;;
12127;SDS011;6127;57.702;11.904;2022-12-07T14:15:50;0.50;;;0.50;;
12127;SDS011;6127;57.702;11.904;2022-12-07T14:23:37;0.50;;;0.50;;
12127;SDS011;6127;57.702;11.904;2022-12-07T14:26:07;0.40;;;0.40;;
12127;SDS011;6127;57.702;11.904;2022-12-07T14:28:35;0.40;;;0.40;;
12127;SDS011;6127;57.702;11.904;2022-12-07T14:31:08;0.30;;;0.30;;
12127;SDS011;6127;57.702;11.904;2022-12-07T14:33:36;0.50;;;0.50;;
12127;SDS011;6127;57.702;11.904;2022-12-07T14:36:02;0.40;;;0.40;;
12127;SDS011;6127;57.702;11.904;2022-12-07T14:38:28;0.40;;;0.40;;
12127;SDS011;6127;57.702;11.904;2022-12-07T14:40:54;0.40;;;0.40;;
12127;SDS011;6127;57.702;11.904;2022-12-07T14:43:40;0.40;;;0.40;;
12127;SDS011;6127;57.702;11.904;2022-12-07T14:46:06;0.50;;;0.50;;
12127;SDS011;6127;57.702;11.904;2022-12-07T14:48:32;0.43;;;0.43;;
12127;SDS011;6127;57.702;11.904;2022-12-07T14:50:58;0.30;;;0.30;;
12127;SDS011;6127;57.702;11.904;2022-12-07T14:53:27;0.40;;;0.40;;
12127;SDS011;6127;57.702;11.904;2022-12-07T14:55:54;0.50;;;0.50;;
12127;SDS011;6127;57.702;11.904;2022-12-07T14:58:20;0.40;;;0.40;;
12127;SDS011;6127;57.702;11.904;2022-12-07T15:00:46;0.40;;;0.40;;
12127;SDS011;6127;57.702;11.904;2022-12-07T15:03:12;0.50;;;0.50;;
12127;SDS011;6127;57.702;11.904;2022-12-07T15:05:38;0.40;;;0.40;;
12127;SDS011;6127;57.702;11.904;2022-12-07T15:08:04;0.40;;;0.40;;
12127;SDS011;6127;57.702;11.904;2022-12-07T15:10:31;0.50;;;0.50;;
12127;SDS011;6127;57.702;11.904;2022-12-07T15:12:58;0.30;;;0.30;;
12127;SDS011;6127;57.702;11.904;2022-12-07T15:15:44;0.40;;;0.40;;
12127;SDS011;6127;57.702;11.904;2022-12-07T15:18:10;0.30;;;0.30;;
12127;SDS011;6127;57.702;11.904;2022-12-07T15:20:36;0.30;;;0.30;;
12127;SDS011;6127;57.702;11.904;2022-12-07T15:23:01;0.30;;;0.30;;
12127;SDS011;6127;57.702;11.904;2022-12-07T15:25:27;0.40;;;0.40;;
12127;SDS011;6127;57.702;11.904;2022-12-07T15:27:53;0.40;;;0.40;;
12127;SDS011;6127;57.702;11.904;2022-12-07T15:30:19;0.40;;;0.40;;
12127;SDS011;6127;57.702;11.904;2022-12-07T15:32:49;0.50;;;0.50;;
12127;SDS011;6127;57.702;11.904;2022-12-07T15:35:15;0.50;;;0.50;;
12127;SDS011;6127;57.702;11.904;2022-12-07T15:37:41;0.50;;;0.50;;
12127;SDS011;6127;57.702;11.904;2022-12-07T15:40:07;0.50;;;0.50;;
12127;SDS011;6127;57.702;11.904;2022-12-07T15:42:33;0.50;;;0.50;;
12127;SDS011;6127;57.702;11.904;2022-12-07T15:45:00;0.50;;;0.50;;
12127;SDS011;6127;57.702;11.904;2022-12-07T15:47:30;0.40;;;0.40;;
12127;SDS011;6127;57.702;11.904;2022-12-07T15:49:56;0.30;;;0.30;;
12127;SDS011;6127;57.702;11.904;2022-12-07T15:52:22;0.40;;;0.40;;
12127;SDS011;6127;57.702;11.904;2022-12-07T15:54:48;0.40;;;0.40;;
12127;SDS011;6127;57.702;11.904;2022-12-07T15:57:14;0.50;;;0.50;;
12127;SDS011;6127;57.702;11.904;2022-12-07T15:59:40;0.43;;;0.43;;
12127;SDS011;6127;57.702;11.904;2022-12-07T16:02:07;0.40;;;0.40;;
12127;SDS011;6127;57.702;11.904;2022-12-07T16:04:34;0.43;;;0.43;;
12127;SDS011;6127;57.702;11.904;2022-12-07T16:07:00;0.50;;;0.50;;
12127;SDS011;6127;57.702;11.904;2022-12-07T16:09:26;0.50;;;0.50;;
12127;SDS011;6127;57.702;11.904;2022-12-07T16:11:52;0.40;;;0.40;;
12127;SDS011;6127;57.702;11.904;2022-12-07T16:14:18;0.50;;;0.50;;
12127;SDS011;6127;57.702;11.904;2022-12-07T16:16:44;0.40;;;0.40;;
12127;SDS011;6127;57.702;11.904;2022-12-07T16:19:10;0.50;;;0.50;;
12127;SDS011;6127;57.702;11.904;2022-12-07T16:21:36;0.40;;;0.40;;
12127;SDS011;6127;57.702;11.904;2022-12-07T16:24:03;0.40;;;0.40;;
12127;SDS011;6127;57.702;11.904;2022-12-07T16:26:30;0.50;;;0.50;;
12127;SDS011;6127;57.702;11.904;2022-12-07T16:28:55;0.50;;;0.50;;
12127;SDS011;6127;57.702;11.904;2022-12-07T16:31:23;0.50;;;0.50;;
12127;SDS011;6127;57.702;11.904;2022-12-07T16:33:49;0.50;;;0.50;;
12127;SDS011;6127;57.702;11.904;2022-12-07T16:36:16;0.50;;;0.50;;
12127;SDS011;6127;57.702;11.904;2022-12-07T16:38:43;0.47;;;0.47;;
12127;SDS011;6127;57.702;11.904;2022-12-07T16:41:09;0.50;;;0.50;;
12127;SDS011;6127;57.702;11.904;2022-12-07T16:43:35;0.50;;;0.50;;
12127;SDS011;6127;57.702;11.904;2022-12-07T16:46:01;0.50;;;0.50;;